createdAt,value
2022-09-23T00:01:05.161Z,95795.69
2022-09-23T00:03:32.400Z,95793.59
2022-09-23T00:06:01.175Z,95790.34
2022-09-23T00:08:28.897Z,95796.44
2022-09-23T00:10:56.032Z,95799.91
2022-09-23T00:13:25.501Z,95798.47
2022-09-23T00:15:52.309Z,95790.88
2022-09-23T00:18:19.307Z,95797.81
2022-09-23T00:20:45.763Z,95788.69
2022-09-23T00:23:12.612Z,95794.97
2022-09-23T00:25:39.068Z,95790.41
2022-09-23T00:28:05.504Z,95785.75
2022-09-23T00:30:32.001Z,95801.28
2022-09-23T00:32:58.458Z,95791.41
2022-09-23T00:35:24.912Z,95792.25
2022-09-23T00:37:51.491Z,95790.84
2022-09-23T00:40:18.080Z,95788.53
2022-09-23T00:42:49.600Z,95784.25
2022-09-23T00:45:19.412Z,95794.97
2022-09-23T00:48:01.736Z,95783.88
2022-09-23T00:50:34.643Z,95788.28
2022-09-23T00:53:06.529Z,95785.63
2022-09-23T00:55:34.399Z,95788.91
2022-09-23T00:58:04.592Z,95778.69
2022-09-23T01:00:31.204Z,95788.03
2022-09-23T01:02:57.653Z,95785.00
2022-09-23T01:05:24.123Z,95785.00
2022-09-23T01:07:50.973Z,95783.94
2022-09-23T01:10:17.963Z,95777.22
2022-09-23T01:13:16.175Z,95774.16
2022-09-23T01:15:57.590Z,95775.94
2022-09-23T01:19:06.426Z,95774.25
2022-09-23T01:21:44.204Z,95776.06
2022-09-23T01:24:37.578Z,95776.06
2022-09-23T01:27:22.940Z,95785.66
2022-09-23T01:30:31.262Z,95778.09
2022-09-23T01:33:12.838Z,95778.47
2022-09-23T01:35:57.649Z,95776.84
2022-09-23T01:38:34.332Z,95774.81
2022-09-23T01:41:35.340Z,95782.19
2022-09-23T01:44:29.665Z,95786.59
2022-09-23T01:47:08.112Z,95785.00
2022-09-23T01:50:03.204Z,95782.75
2022-09-23T01:52:44.471Z,95778.53
2022-09-23T01:55:18.348Z,95774.81
2022-09-23T01:57:53.077Z,95778.09
2022-09-23T02:00:23.901Z,95774.81
2022-09-23T02:03:07.119Z,95776.34
2022-09-23T02:05:38.908Z,95771.09
2022-09-23T02:09:00.914Z,95770.28
2022-09-23T02:11:27.960Z,95778.03
2022-09-23T02:14:22.295Z,95767.44
2022-09-23T02:16:53.887Z,95773.28
2022-09-23T02:19:44.392Z,95775.19
2022-09-23T02:22:28.095Z,95773.19
2022-09-23T02:24:57.592Z,95771.91
2022-09-23T02:27:29.703Z,95776.47
2022-09-23T02:30:09.654Z,95779.72
2022-09-23T02:32:52.962Z,95775.44
2022-09-23T02:35:34.778Z,95768.56
2022-09-23T02:38:43.552Z,95766.34
2022-09-23T02:41:25.391Z,95763.53
2022-09-23T02:44:08.699Z,95758.88
2022-09-23T02:46:36.755Z,95758.53
2022-09-23T02:49:11.891Z,95766.94
2022-09-23T02:51:41.616Z,95765.34
2022-09-23T02:54:13.161Z,95762.84
2022-09-23T02:56:40.570Z,95766.50
2022-09-23T02:59:09.730Z,95775.06
2022-09-23T03:01:57.036Z,95781.47
2022-09-23T03:04:35.646Z,95777.81
2022-09-23T03:07:23.531Z,95778.97
2022-09-23T03:10:04.212Z,95784.63
2022-09-23T03:12:55.953Z,95780.59
2022-09-23T03:15:30.718Z,95777.41
2022-09-23T03:18:17.307Z,95773.53
2022-09-23T03:20:57.996Z,95778.66
2022-09-23T03:23:33.021Z,95771.28
2022-09-23T03:26:07.650Z,95770.81
2022-09-23T03:28:42.184Z,95772.41
2022-09-23T03:31:10.121Z,95778.69
2022-09-23T03:33:41.891Z,95778.69
2022-09-23T03:36:14.370Z,95783.38
2022-09-23T03:38:48.656Z,95785.19
2022-09-23T03:41:26.813Z,95779.59
2022-09-23T03:43:53.700Z,95779.59
2022-09-23T03:46:20.134Z,95779.28
2022-09-23T03:48:46.613Z,95776.53
2022-09-23T03:51:22.486Z,95773.88
2022-09-23T03:53:50.429Z,95773.59
2022-09-23T03:56:16.977Z,95766.13
2022-09-23T03:58:43.494Z,95765.13
2022-09-23T04:01:09.970Z,95763.88
2022-09-23T04:03:36.447Z,95758.84
2022-09-23T04:06:02.894Z,95764.41
2022-09-23T04:08:29.332Z,95762.34
2022-09-23T04:11:00.356Z,95759.50
2022-09-23T04:13:34.891Z,95757.47
2022-09-23T04:16:01.647Z,95757.47
2022-09-23T04:18:28.171Z,95758.94
2022-09-23T04:20:59.024Z,95755.00
2022-09-23T04:23:26.957Z,95752.56
2022-09-23T04:25:53.812Z,95755.63
2022-09-23T04:28:21.900Z,95757.91
2022-09-23T04:30:49.009Z,95750.97
2022-09-23T04:33:16.588Z,95766.28
2022-09-23T04:35:43.258Z,95765.75
2022-09-23T04:38:12.234Z,95756.97
2022-09-23T04:40:39.032Z,95765.88
2022-09-23T04:43:05.562Z,95764.56
2022-09-23T04:45:32.049Z,95773.16
2022-09-23T04:47:58.538Z,95778.25
2022-09-23T04:50:26.164Z,95783.38
2022-09-23T04:52:53.404Z,95787.91
2022-09-23T04:55:20.388Z,95784.84
2022-09-23T04:57:47.018Z,95791.94
2022-09-23T05:00:14.251Z,95791.78
2022-09-23T05:02:48.813Z,95791.13
2022-09-23T05:05:16.768Z,95798.44
2022-09-23T05:07:43.203Z,95792.34
2022-09-23T05:10:09.754Z,95803.94
2022-09-23T05:12:36.210Z,95805.47
2022-09-23T05:15:02.852Z,95803.44
2022-09-23T05:17:29.302Z,95795.06
2022-09-23T05:19:55.765Z,95795.69
2022-09-23T05:22:22.234Z,95797.13
2022-09-23T05:24:48.698Z,95786.03
2022-09-23T05:27:15.154Z,95801.91
2022-09-23T05:29:41.612Z,95792.84
2022-09-23T05:32:08.064Z,95802.28
2022-09-23T05:34:34.524Z,95802.16
2022-09-23T05:37:01.221Z,95802.81
2022-09-23T05:39:27.664Z,95811.75
2022-09-23T05:41:54.103Z,95809.59
2022-09-23T05:44:20.825Z,95803.94
2022-09-23T05:46:47.543Z,95805.59
2022-09-23T05:49:14.033Z,95812.97
2022-09-23T05:51:40.484Z,95806.03
2022-09-23T05:54:07.164Z,95806.41
2022-09-23T05:56:34.636Z,95795.50
2022-09-23T05:59:02.351Z,95801.56
2022-09-23T06:01:32.752Z,95807.28
2022-09-23T06:04:00.466Z,95806.72
2022-09-23T06:06:28.771Z,95813.78
2022-09-23T06:08:55.301Z,95801.69
2022-09-23T06:11:21.983Z,95807.72
2022-09-23T06:13:48.416Z,95801.38
2022-09-23T06:16:16.284Z,95792.47
2022-09-23T06:18:45.159Z,95797.44
2022-09-23T06:21:16.625Z,95797.38
2022-09-23T06:23:44.653Z,95798.63
2022-09-23T06:26:14.071Z,95799.06
2022-09-23T06:28:42.025Z,95795.50
2022-09-23T06:31:13.737Z,95800.47
2022-09-23T06:33:42.301Z,95802.13
2022-09-23T06:36:10.308Z,95801.00
2022-09-23T06:38:41.811Z,95798.50
2022-09-23T06:41:08.237Z,95789.22
2022-09-23T06:43:34.711Z,95787.63
2022-09-23T06:46:04.066Z,95790.56
2022-09-23T06:48:32.369Z,95792.22
2022-09-23T06:51:00.527Z,95802.50
2022-09-23T06:53:26.976Z,95801.72
2022-09-23T06:56:03.628Z,95803.97
2022-09-23T06:58:31.747Z,95805.41
2022-09-23T07:01:07.733Z,95800.13
2022-09-23T07:03:35.508Z,95808.16
2022-09-23T07:06:02.356Z,95804.41
2022-09-23T07:08:30.551Z,95796.84
2022-09-23T07:10:59.438Z,95802.63
2022-09-23T07:13:27.192Z,95797.81
2022-09-23T07:15:58.369Z,95802.38
2022-09-23T07:18:26.573Z,95802.81
2022-09-23T07:20:53.851Z,95808.19
2022-09-23T07:23:20.725Z,95807.47
2022-09-23T07:25:47.519Z,95807.72
2022-09-23T07:28:13.997Z,95809.00
2022-09-23T07:30:51.377Z,95806.94
2022-09-23T07:33:30.499Z,95806.13
2022-09-23T07:35:58.459Z,95803.69
2022-09-23T07:38:25.020Z,95804.50
2022-09-23T07:40:51.511Z,95809.63
2022-09-23T07:43:17.992Z,95813.72
2022-09-23T07:45:44.464Z,95822.53
2022-09-23T07:48:10.930Z,95821.28
2022-09-23T07:50:39.259Z,95813.31
2022-09-23T07:53:05.695Z,95815.19
2022-09-23T07:55:32.170Z,95812.91
2022-09-23T07:58:00.038Z,95811.44
2022-09-23T08:00:26.490Z,95811.06
2022-09-23T08:02:53.295Z,95807.16
2022-09-23T08:05:19.815Z,95803.50
2022-09-23T08:07:46.242Z,95812.69
2022-09-23T08:10:12.681Z,95814.13
2022-09-23T08:12:39.190Z,95806.13
2022-09-23T08:15:06.146Z,95816.38
2022-09-23T08:17:32.604Z,95815.16
2022-09-23T08:19:59.053Z,95821.06
2022-09-23T08:22:25.531Z,95817.16
2022-09-23T08:24:53.196Z,95816.09
2022-09-23T08:27:20.988Z,95812.44
2022-09-23T08:29:47.434Z,95819.63
2022-09-23T08:32:13.867Z,95827.34
2022-09-23T08:34:40.392Z,95821.13
2022-09-23T08:37:10.391Z,95824.41
2022-09-23T08:39:36.874Z,95830.59
2022-09-23T08:42:19.529Z,95820.38
2022-09-23T08:44:54.958Z,95821.22
2022-09-23T08:47:32.085Z,95826.66
2022-09-23T08:50:28.844Z,95819.88
2022-09-23T08:52:59.736Z,95818.22
2022-09-23T08:55:39.023Z,95820.97
2022-09-23T08:58:33.049Z,95819.97
2022-09-23T09:01:11.293Z,95825.72
2022-09-23T09:04:00.948Z,95826.03
2022-09-23T09:06:51.794Z,95818.31
2022-09-23T09:09:25.737Z,95818.78
2022-09-23T09:12:23.574Z,95819.63
2022-09-23T09:15:07.427Z,95813.47
2022-09-23T09:17:40.155Z,95805.28
2022-09-23T09:20:15.777Z,95813.91
2022-09-23T09:23:15.593Z,95809.78
2022-09-23T09:25:49.386Z,95806.63
2022-09-23T09:28:15.777Z,95799.56
2022-09-23T09:30:48.324Z,95799.75
2022-09-23T09:33:19.175Z,95799.50
2022-09-23T09:36:01.475Z,95798.69
2022-09-23T09:38:28.291Z,95791.00
2022-09-23T09:41:01.905Z,95794.41
2022-09-23T09:43:28.389Z,95789.31
2022-09-23T09:46:32.690Z,95782.88
2022-09-23T09:49:08.923Z,95789.75
2022-09-23T09:51:35.535Z,95791.31
2022-09-23T09:54:22.658Z,95796.56
2022-09-23T09:56:49.398Z,95793.44
2022-09-23T09:59:24.011Z,95786.34
2022-09-23T10:02:21.585Z,95798.22
2022-09-23T10:04:57.569Z,95791.72
2022-09-23T10:07:28.172Z,95782.63
2022-09-23T10:09:58.296Z,95787.47
2022-09-23T10:12:46.668Z,95779.16
2022-09-23T10:15:44.926Z,95780.09
2022-09-23T10:18:20.095Z,95784.84
2022-09-23T10:20:48.040Z,95776.63
2022-09-23T10:23:28.432Z,95771.03
2022-09-23T10:26:02.057Z,95768.53
2022-09-23T10:28:46.864Z,95761.47
2022-09-23T10:31:24.669Z,95766.06
2022-09-23T10:34:03.639Z,95757.34
2022-09-23T10:36:33.261Z,95748.94
2022-09-23T10:39:05.033Z,95752.00
2022-09-23T10:41:42.129Z,95743.66
2022-09-23T10:44:20.108Z,95742.00
2022-09-23T10:47:29.779Z,95744.81
2022-09-23T10:50:29.475Z,95737.47
2022-09-23T10:53:06.636Z,95727.75
2022-09-23T10:56:01.581Z,95738.59
2022-09-23T10:58:33.592Z,95730.38
2022-09-23T11:01:38.795Z,95732.63
2022-09-23T11:04:34.322Z,95728.34
2022-09-23T11:07:27.260Z,95726.19
2022-09-23T11:10:35.284Z,95716.91
2022-09-23T11:13:05.494Z,95717.19
2022-09-23T11:15:44.523Z,95712.09
2022-09-23T11:18:28.622Z,95701.31
2022-09-23T11:21:31.283Z,95712.59
2022-09-23T11:24:03.704Z,95699.69
2022-09-23T11:26:55.033Z,95698.91
2022-09-23T11:29:36.034Z,95706.75
2022-09-23T11:32:05.420Z,95692.66
2022-09-23T11:34:59.280Z,95694.56
2022-09-23T11:37:37.083Z,95681.06
2022-09-23T11:40:35.127Z,95690.06
2022-09-23T11:43:09.792Z,95679.53
2022-09-23T11:45:58.744Z,95677.97
2022-09-23T11:48:35.851Z,95669.47
2022-09-23T11:51:14.731Z,95676.44
2022-09-23T11:53:59.671Z,95688.94
2022-09-23T11:56:41.627Z,95668.91
2022-09-23T11:59:39.214Z,95666.56
2022-09-23T12:02:31.353Z,95669.75
2022-09-23T12:05:16.179Z,95680.34
2022-09-23T12:07:52.221Z,95665.06
2022-09-23T12:10:20.050Z,95653.72
2022-09-23T12:12:52.766Z,95659.44
2022-09-23T12:15:22.291Z,95658.50
2022-09-23T12:18:07.808Z,95659.59
2022-09-23T12:20:49.091Z,95653.00
2022-09-23T12:23:21.597Z,95642.22
2022-09-23T12:25:57.409Z,95642.94
2022-09-23T12:28:38.494Z,95641.41
2022-09-23T12:31:12.627Z,95634.44
2022-09-23T12:33:40.024Z,95637.13
2022-09-23T12:36:10.362Z,95630.28
2022-09-23T12:38:49.294Z,95632.75
2022-09-23T12:41:38.481Z,95624.59
2022-09-23T12:44:07.670Z,95621.72
2022-09-23T12:46:34.230Z,95630.41
2022-09-23T12:49:03.317Z,95620.72
2022-09-23T12:51:35.042Z,95618.34
2022-09-23T12:54:04.180Z,95621.91
2022-09-23T12:56:36.721Z,95613.69
2022-09-23T12:59:09.100Z,95621.44
2022-09-23T13:01:38.373Z,95609.44
2022-09-23T13:04:05.599Z,95611.69
2022-09-23T13:06:40.874Z,95599.69
2022-09-23T13:09:26.319Z,95594.28
2022-09-23T13:11:59.945Z,95591.72
2022-09-23T13:14:29.860Z,95594.66
2022-09-23T13:16:57.957Z,95594.28
2022-09-23T13:19:27.048Z,95587.38
2022-09-23T13:21:53.447Z,95583.97
2022-09-23T13:24:22.795Z,95571.25
2022-09-23T13:27:03.331Z,95567.69
2022-09-23T13:29:45.117Z,95567.19
2022-09-23T13:32:14.891Z,95567.75
2022-09-23T13:34:44.223Z,95575.94
2022-09-23T13:37:24.296Z,95577.28
2022-09-23T13:39:51.209Z,95569.31
2022-09-23T13:42:28.067Z,95577.75
2022-09-23T13:44:57.643Z,95563.00
2022-09-23T13:47:29.383Z,95567.78
2022-09-23T13:49:57.276Z,95572.13
2022-09-23T13:52:31.672Z,95562.81
2022-09-23T13:54:58.374Z,95561.72
2022-09-23T13:57:29.083Z,95552.47
2022-09-23T14:00:00.820Z,95550.06
2022-09-23T14:02:27.796Z,95559.88
2022-09-23T14:04:57.991Z,95565.06
2022-09-23T14:07:25.740Z,95551.63
2022-09-23T14:09:55.511Z,95548.34
2022-09-23T14:12:22.718Z,95535.84
2022-09-23T14:14:52.766Z,95537.16
2022-09-23T14:17:22.418Z,95542.47
2022-09-23T14:19:51.572Z,95539.09
2022-09-23T14:22:27.409Z,95544.28
2022-09-23T14:24:56.235Z,95539.16
2022-09-23T14:27:30.507Z,95531.22
2022-09-23T14:29:58.649Z,95531.63
2022-09-23T14:32:27.138Z,95536.97
2022-09-23T14:35:16.089Z,95535.59
2022-09-23T14:37:46.379Z,95525.22
2022-09-23T14:40:17.872Z,95530.50
2022-09-23T14:43:07.911Z,95518.84
2022-09-23T14:45:38.540Z,95522.94
2022-09-23T14:48:35.043Z,95513.06
2022-09-23T14:51:06.044Z,95522.16
2022-09-23T14:53:36.679Z,95511.47
2022-09-23T14:56:05.877Z,95517.13
2022-09-23T14:58:51.957Z,95512.09
2022-09-23T15:01:30.824Z,95503.34
2022-09-23T15:04:21.615Z,95503.16
2022-09-23T15:06:51.585Z,95512.63
2022-09-23T15:09:31.066Z,95490.66
2022-09-23T15:12:01.819Z,95498.28
2022-09-23T15:14:39.469Z,95495.56
2022-09-23T15:17:35.797Z,95492.16
2022-09-23T15:20:06.616Z,95496.84
2022-09-23T15:22:43.939Z,95495.31
2022-09-23T15:25:34.772Z,95493.44
2022-09-23T15:28:10.274Z,95485.66
2022-09-23T15:30:37.912Z,95486.69
2022-09-23T15:33:05.191Z,95482.41
2022-09-23T15:35:32.323Z,95489.66
2022-09-23T15:38:01.424Z,95487.53
2022-09-23T15:40:34.198Z,95488.09
2022-09-23T15:43:10.269Z,95490.59
2022-09-23T15:45:43.006Z,95497.50
2022-09-23T15:48:24.108Z,95500.97
2022-09-23T15:50:51.497Z,95498.63
2022-09-23T15:53:27.281Z,95497.31
2022-09-23T15:55:53.937Z,95495.47
2022-09-23T15:58:22.273Z,95493.25
2022-09-23T16:00:55.680Z,95491.66
2022-09-23T16:03:24.280Z,95484.66
2022-09-23T16:05:51.439Z,95490.81
2022-09-23T16:08:17.875Z,95484.66
2022-09-23T16:10:44.332Z,95486.22
2022-09-23T16:13:13.069Z,95485.34
2022-09-23T16:15:40.441Z,95485.22
2022-09-23T16:18:09.368Z,95489.78
2022-09-23T16:20:38.820Z,95477.19
2022-09-23T16:23:21.884Z,95475.13
2022-09-23T16:25:48.359Z,95478.44
2022-09-23T16:28:14.797Z,95476.16
2022-09-23T16:30:41.241Z,95467.34
2022-09-23T16:33:07.690Z,95463.22
2022-09-23T16:35:34.207Z,95473.69
2022-09-23T16:38:00.635Z,95470.88
2022-09-23T16:40:27.254Z,95474.44
2022-09-23T16:42:53.760Z,95476.72
2022-09-23T16:45:21.845Z,95478.47
2022-09-23T16:47:50.520Z,95471.69
2022-09-23T16:50:20.146Z,95475.47
2022-09-23T16:52:46.647Z,95470.88
2022-09-23T16:55:14.677Z,95469.88
2022-09-23T16:57:41.611Z,95467.84
2022-09-23T17:00:13.877Z,95474.38
2022-09-23T17:02:40.405Z,95473.78
2022-09-23T17:05:07.197Z,95481.50
2022-09-23T17:07:33.752Z,95477.28
2022-09-23T17:10:00.241Z,95485.47
2022-09-23T17:12:32.726Z,95476.75
2022-09-23T17:14:59.301Z,95488.91
2022-09-23T17:17:25.773Z,95486.59
2022-09-23T17:19:52.206Z,95487.09
2022-09-23T17:22:18.707Z,95481.69
2022-09-23T17:24:45.188Z,95482.41
2022-09-23T17:27:11.655Z,95485.97
2022-09-23T17:29:38.111Z,95484.63
2022-09-23T17:32:04.557Z,95484.00
2022-09-23T17:34:31.001Z,95480.13
2022-09-23T17:36:57.441Z,95489.66
2022-09-23T17:39:23.880Z,95477.00
2022-09-23T17:41:50.322Z,95474.19
2022-09-23T17:44:16.879Z,95470.97
2022-09-23T17:46:43.306Z,95471.59
2022-09-23T17:49:09.830Z,95465.09
2022-09-23T17:51:36.465Z,95463.69
2022-09-23T17:54:02.915Z,95451.25
2022-09-23T17:56:29.374Z,95458.91
2022-09-23T17:59:00.284Z,95459.75
2022-09-23T18:01:27.192Z,95444.06
2022-09-23T18:03:55.577Z,95453.94
2022-09-23T18:06:24.958Z,95442.44
2022-09-23T18:08:51.993Z,95441.41
2022-09-23T18:11:24.478Z,95428.63
2022-09-23T18:13:53.986Z,95426.78
2022-09-23T18:16:23.318Z,95425.84
2022-09-23T18:18:51.187Z,95424.28
2022-09-23T18:21:17.680Z,95423.22
2022-09-23T18:23:44.128Z,95423.06
2022-09-23T18:26:20.766Z,95427.16
2022-09-23T18:28:48.497Z,95427.63
2022-09-23T18:31:16.088Z,95423.91
2022-09-23T18:33:42.595Z,95425.31
2022-09-23T18:36:09.304Z,95441.59
2022-09-23T18:38:35.763Z,95442.66
2022-09-23T18:41:02.324Z,95438.50
2022-09-23T18:43:37.288Z,95443.59
2022-09-23T18:46:10.787Z,95449.81
2022-09-23T18:48:37.369Z,95433.13
2022-09-23T18:51:06.290Z,95442.97
2022-09-23T18:53:32.753Z,95439.00
2022-09-23T18:58:25.631Z,95440.34
2022-09-23T19:00:52.169Z,95433.22
2022-09-23T19:03:18.704Z,95439.88
2022-09-23T19:05:45.178Z,95443.59
2022-09-23T19:08:11.626Z,95446.16
2022-09-23T19:10:38.075Z,95445.50
2022-09-23T19:13:04.518Z,95455.38
2022-09-23T19:15:31.063Z,95457.09
2022-09-23T19:17:57.514Z,95462.13
2022-09-23T19:20:23.948Z,95463.22
2022-09-23T19:22:50.391Z,95465.56
2022-09-23T19:25:16.929Z,95471.47
2022-09-23T19:27:43.366Z,95475.19
2022-09-23T19:30:10.279Z,95469.06
2022-09-23T19:32:36.718Z,95476.63
2022-09-23T19:35:03.188Z,95466.00
2022-09-23T19:37:29.640Z,95471.22
2022-09-23T19:39:56.102Z,95471.34
2022-09-23T19:42:22.568Z,95468.94
2022-09-23T19:44:49.010Z,95472.44
2022-09-23T19:47:15.644Z,95460.69
2022-09-23T19:49:42.166Z,95477.88
2022-09-23T19:52:08.635Z,95463.47
2022-09-23T19:54:35.152Z,95463.03
2022-09-23T19:57:01.582Z,95466.72
2022-09-23T19:59:28.042Z,95462.44
2022-09-23T20:01:54.565Z,95463.94
2022-09-23T20:04:21.288Z,95459.63
2022-09-23T20:06:47.771Z,95466.72
2022-09-23T20:09:14.207Z,95460.22
2022-09-23T20:11:40.738Z,95448.25
2022-09-23T20:14:07.229Z,95446.75
2022-09-23T20:16:35.739Z,95449.66
2022-09-23T20:19:03.062Z,95445.13
2022-09-23T20:21:30.398Z,95449.75
2022-09-23T20:23:57.467Z,95439.78
2022-09-23T20:26:24.288Z,95444.91
2022-09-23T20:28:51.063Z,95442.09
2022-09-23T20:31:19.420Z,95448.94
2022-09-23T20:33:50.371Z,95447.91
2022-09-23T20:36:16.860Z,95445.69
2022-09-23T20:38:43.328Z,95452.56
2022-09-23T20:41:09.891Z,95445.22
2022-09-23T20:43:36.355Z,95448.25
2022-09-23T20:46:04.076Z,95457.22
2022-09-23T20:48:31.327Z,95459.88
2022-09-23T20:51:02.190Z,95458.47
2022-09-23T20:53:28.669Z,95466.28
2022-09-23T20:55:57.095Z,95449.06
2022-09-23T20:58:31.280Z,95454.06
2022-09-23T21:01:02.061Z,95454.06
2022-09-23T21:03:33.230Z,95452.38
2022-09-23T21:06:01.554Z,95453.41
2022-09-23T21:08:28.028Z,95457.31
2022-09-23T21:10:59.418Z,95458.28
2022-09-23T21:13:25.862Z,95460.75
2022-09-23T21:15:52.380Z,95459.69
2022-09-23T21:18:22.388Z,95457.81
2022-09-23T21:20:56.978Z,95459.34
2022-09-23T21:23:24.928Z,95466.78
2022-09-23T21:25:51.726Z,95452.03
2022-09-23T21:28:18.265Z,95457.06
2022-09-23T21:30:48.517Z,95456.66
2022-09-23T21:33:17.601Z,95462.13
2022-09-23T21:35:44.378Z,95460.38
2022-09-23T21:38:10.841Z,95466.88
2022-09-23T21:40:37.333Z,95471.03
2022-09-23T21:43:03.803Z,95463.53
2022-09-23T21:45:30.233Z,95462.16
2022-09-23T21:47:56.685Z,95461.47
2022-09-23T21:50:23.116Z,95461.41
2022-09-23T21:52:49.554Z,95457.59
2022-09-23T21:55:16.082Z,95460.06
2022-09-23T21:57:42.532Z,95460.78
2022-09-23T22:00:09.480Z,95463.53
2022-09-23T22:02:35.923Z,95462.00
2022-09-23T22:05:02.442Z,95465.56
2022-09-23T22:07:28.862Z,95464.84
2022-09-23T22:09:55.326Z,95462.34
2022-09-23T22:12:21.768Z,95467.78
2022-09-23T22:14:48.202Z,95465.25
2022-09-23T22:17:14.654Z,95461.34
2022-09-23T22:19:45.944Z,95462.97
2022-09-23T22:22:16.180Z,95469.94
2022-09-23T22:24:44.391Z,95461.13
2022-09-23T22:27:13.040Z,95455.66
2022-09-23T22:29:39.662Z,95451.88
2022-09-23T22:32:11.205Z,95449.09
2022-09-23T22:34:49.495Z,95445.94
2022-09-23T22:37:19.804Z,95454.44
2022-09-23T22:39:46.988Z,95442.59
2022-09-23T22:42:13.436Z,95446.78
2022-09-23T22:44:39.903Z,95447.03
2022-09-23T22:47:06.770Z,95448.47
2022-09-23T22:49:33.318Z,95450.00
2022-09-23T22:51:59.966Z,95449.59
2022-09-23T22:54:33.724Z,95445.78
2022-09-23T22:57:01.352Z,95450.09
2022-09-23T22:59:27.908Z,95443.78
2022-09-23T23:01:54.361Z,95449.75
2022-09-23T23:04:20.840Z,95436.75
2022-09-23T23:06:47.298Z,95443.00
2022-09-23T23:09:16.530Z,95442.88
2022-09-23T23:11:43.499Z,95434.44
2022-09-23T23:14:10.862Z,95433.00
2022-09-23T23:16:37.855Z,95447.06
2022-09-23T23:19:13.013Z,95433.63
2022-09-23T23:21:41.194Z,95429.03
2022-09-23T23:24:15.172Z,95427.78
2022-09-23T23:26:41.695Z,95430.25
2022-09-23T23:29:10.995Z,95426.00
2022-09-23T23:31:37.904Z,95417.34
2022-09-23T23:34:04.998Z,95419.91
2022-09-23T23:36:31.447Z,95411.97
2022-09-23T23:38:58.268Z,95409.25
2022-09-23T23:41:24.800Z,95404.84
2022-09-23T23:43:59.981Z,95410.78
2022-09-23T23:46:28.481Z,95403.69
2022-09-23T23:48:56.453Z,95403.16
2022-09-23T23:51:24.261Z,95403.22
2022-09-23T23:53:50.720Z,95397.19
2022-09-23T23:56:19.960Z,95398.50
2022-09-23T23:58:46.511Z,95401.38
